Station Historical Data
Daily Summary for January 27, 2017 Units:  Metric    English   Both
« Previous Day
Next Day »
Daily Weekly Monthly Yearly Custom
  High: Low: Average:
Temperature: 1.7 °C -1.5 °C 0.2 °C
Dew Point: -1.1 °C -5.5 °C -3.7 °C
Humidity: 86% 64% 76%
Wind Speed: 24.1km/h 3.2km/h 12.4km/h
Wind Gust: 40.2km/h - -
Wind- - West
Pressure: 1005.3 hPa 1002.9 hPa -
Precipitation: 0 mm    
Historical Graphs
 
 
Tabular Data for January 27, 2017
Time Temperature Dew Point Pressure Wind Wind Speed Wind Gust Humidity Rainfall Rate (Hourly)
00:05 1.7 °C -1.2 °C 1003.6 hPa West 12.9 km/h 27.4 km/h 81% 0 mm
00:14 1.6 °C -1.2 °C 1003.9 hPa West 16.1 km/h 29 km/h 82% 0 mm
00:19 1.5 °C -1.1 °C 1003.9 hPa WSW 14.5 km/h 20.9 km/h 83% 0 mm
00:24 1.4 °C -1.3 °C 1003.9 hPa WSW 24.1 km/h 30.6 km/h 82% 0 mm
00:29 1.4 °C -1.3 °C 1003.9 hPa West 20.9 km/h 37 km/h 82% 0 mm
00:34 1.4 °C -1.4 °C 1003.9 hPa West 12.9 km/h 37 km/h 81% 0 mm
00:44 1.4 °C -1.5 °C 1003.9 hPa West 14.5 km/h 32.2 km/h 81% 0 mm
00:49 1.4 °C -1.7 °C 1003.9 hPa West 16.1 km/h 32.2 km/h 80% 0 mm
00:54 1.3 °C -2.1 °C 1003.9 hPa NW 9.7 km/h 30.6 km/h 78% 0 mm
01:04 1.3 °C -2.1 °C 1003.9 hPa West 4.8 km/h 25.7 km/h 78% 0 mm
01:09 1.2 °C -2.4 °C 1003.9 hPa WSW 24.1 km/h 37 km/h 77% 0 mm
01:14 1.1 °C -2.5 °C 1003.9 hPa West 14.5 km/h 37 km/h 77% 0 mm
01:19 1 °C -2.6 °C 1003.9 hPa West 12.9 km/h 30.6 km/h 77% 0 mm
01:24 0.9 °C -2.6 °C 1003.9 hPa West 8 km/h 20.9 km/h 77% 0 mm
01:29 0.9 °C -2.7 °C 1003.9 hPa WNW 9.7 km/h 30.6 km/h 77% 0 mm
01:34 0.8 °C -2.7 °C 1003.9 hPa SW 8 km/h 24.1 km/h 77% 0 mm
01:39 0.9 °C -2.5 °C 1004.3 hPa West 6.4 km/h 17.7 km/h 78% 0 mm
01:44 0.9 °C -2.5 °C 1004.3 hPa West 11.3 km/h 25.7 km/h 78% 0 mm
01:49 0.9 °C -2.5 °C 1004.3 hPa West 12.9 km/h 25.7 km/h 78% 0 mm
01:54 0.9 °C -2.6 °C 1004.3 hPa West 16.1 km/h 27.4 km/h 77% 0 mm
01:59 0.9 °C -2.6 °C 1003.9 hPa SW 19.3 km/h 24.1 km/h 77% 0 mm
02:04 0.9 °C -2.9 °C 1004.3 hPa WSW 11.3 km/h 24.1 km/h 76% 0 mm
02:14 0.8 °C -2.9 °C 1004.3 hPa WSW 11.3 km/h 22.5 km/h 76% 0 mm
02:19 0.8 °C -3 °C 1004.3 hPa West 8 km/h 24.1 km/h 76% 0 mm
02:24 0.7 °C -2.7 °C 1004.3 hPa WSW 20.9 km/h 22.5 km/h 78% 0 mm
02:29 0.7 °C -2.5 °C 1004.3 hPa SW 8 km/h 20.9 km/h 79% 0 mm
02:34 0.7 °C -2.6 °C 1004.3 hPa West 9.7 km/h 24.1 km/h 79% 0 mm
02:39 0.7 °C -2.6 °C 1004.3 hPa WSW 11.3 km/h 32.2 km/h 79% 0 mm
02:54 0.7 °C -2.7 °C 1004.3 hPa West 14.5 km/h 32.2 km/h 78% 0 mm
02:59 0.7 °C -2.7 °C 1004.3 hPa West 14.5 km/h 32.2 km/h 78% 0 mm
03:04 0.7 °C -2.7 °C 1004.6 hPa West 11.3 km/h 29 km/h 78% 0 mm
03:09 0.7 °C -2.9 °C 1004.3 hPa West 12.9 km/h 29 km/h 77% 0 mm
03:14 0.7 °C -2.8 °C 1004.3 hPa West 16.1 km/h 24.1 km/h 77% 0 mm
03:24 0.7 °C -3.1 °C 1004.3 hPa SW 16.1 km/h 30.6 km/h 76% 0 mm
03:29 0.7 °C -3.1 °C 1004.3 hPa WSW 19.3 km/h 33.8 km/h 76% 0 mm
03:34 0.7 °C -2.9 °C 1004.3 hPa West 16.1 km/h 33.8 km/h 77% 0 mm
03:44 0.6 °C -2.8 °C 1004.3 hPa West 9.7 km/h 20.9 km/h 78% 0 mm
03:49 0.6 °C -2.8 °C 1004.6 hPa West 12.9 km/h 22.5 km/h 78% 0 mm
03:54 0.5 °C -2.9 °C 1004.3 hPa West 14.5 km/h 29 km/h 78% 0 mm
03:59 0.5 °C -2.9 °C 1004.6 hPa West 12.9 km/h 29 km/h 78% 0 mm
04:04 0.5 °C -2.9 °C 1004.6 hPa West 11.3 km/h 24.1 km/h 78% 0 mm
04:09 0.4 °C -2.8 °C 1004.6 hPa West 8 km/h 22.5 km/h 79% 0 mm
04:14 0.4 °C -2.8 °C 1004.6 hPa NW 12.9 km/h 17.7 km/h 79% 0 mm
04:19 0.3 °C -2.7 °C 1004.6 hPa WNW 11.3 km/h 24.1 km/h 80% 0 mm
04:24 0.2 °C -2.7 °C 1004.6 hPa WNW 12.9 km/h 24.1 km/h 81% 0 mm
04:29 0.1 °C -2.8 °C 1004.6 hPa NW 9.7 km/h 20.9 km/h 81% 0 mm
04:34 0.1 °C -2.7 °C 1004.6 hPa West 4.8 km/h 22.5 km/h 82% 0 mm
04:44 -0.1 °C -2.8 °C 1004.6 hPa West 8 km/h 20.9 km/h 82% 0 mm
04:49 -0.1 °C -2.8 °C 1004.6 hPa WNW 9.7 km/h 20.9 km/h 82% 0 mm
04:54 0 °C -2.7 °C 1004.6 hPa West 9.7 km/h 20.9 km/h 82% 0 mm
04:59 -0.1 °C -3 °C 1004.6 hPa West 9.7 km/h 20.9 km/h 81% 0 mm
05:04 -0.1 °C -2.9 °C 1004.6 hPa West 9.7 km/h 20.9 km/h 81% 0 mm
05:14 -0.1 °C -3.2 °C 1004.6 hPa West 22.5 km/h 25.7 km/h 80% 0 mm
05:19 -0.1 °C -3.7 °C 1004.6 hPa West 14.5 km/h 35.4 km/h 77% 0 mm
05:24 -0.1 °C -3.8 °C 1004.6 hPa WNW 17.7 km/h 35.4 km/h 76% 0 mm
05:29 -0.1 °C -4 °C 1004.6 hPa West 19.3 km/h 32.2 km/h 75% 0 mm
05:39 -0.1 °C -3.8 °C 1005 hPa WNW 14.5 km/h 27.4 km/h 76% 0 mm
05:44 -0.2 °C -3.9 °C 1004.6 hPa WNW 14.5 km/h 24.1 km/h 76% 0 mm
05:49 -0.2 °C -3.9 °C 1004.6 hPa NW 12.9 km/h 27.4 km/h 76% 0 mm
05:54 -0.3 °C -4 °C 1004.6 hPa West 12.9 km/h 27.4 km/h 76% 0 mm
05:59 -0.3 °C -4.2 °C 1004.6 hPa West 14.5 km/h 27.4 km/h 75% 0 mm
06:04 -0.4 °C -4.3 °C 1004.6 hPa WNW 12.9 km/h 27.4 km/h 75% 0 mm
06:14 -0.6 °C -4.6 °C 1004.6 hPa West 12.9 km/h 27.4 km/h 74% 0 mm
06:19 -0.6 °C -4.7 °C 1004.6 hPa West 11.3 km/h 29 km/h 74% 0 mm
06:24 -0.6 °C -4.7 °C 1004.6 hPa West 12.9 km/h 29 km/h 74% 0 mm
06:29 -0.6 °C -4.8 °C 1005 hPa NW 22.5 km/h 27.4 km/h 73% 0 mm
06:34 -0.7 °C -4.9 °C 1005 hPa West 3.2 km/h 20.9 km/h 73% 0 mm
06:39 -0.7 °C -4.9 °C 1005 hPa West 4.8 km/h 20.9 km/h 73% 0 mm
06:44 -0.8 °C -5 °C 1005 hPa West 9.7 km/h 20.9 km/h 73% 0 mm
06:49 -0.7 °C -4.9 °C 1005 hPa West 4.8 km/h 17.7 km/h 73% 0 mm
07:04 -0.7 °C -4.7 °C 1005 hPa West 8 km/h 17.7 km/h 74% 0 mm
07:09 -0.7 °C -4.7 °C 1005 hPa West 8 km/h 19.3 km/h 74% 0 mm
07:14 -0.6 °C -4.8 °C 1005 hPa West 8 km/h 20.9 km/h 73% 0 mm
07:19 -0.6 °C -4.8 °C 1005 hPa West 9.7 km/h 20.9 km/h 73% 0 mm
07:24 -0.6 °C -4.6 °C 1005.3 hPa West 4.8 km/h 17.7 km/h 74% 0 mm
07:29 -0.6 °C -4.6 °C 1005.3 hPa WSW 9.7 km/h 20.9 km/h 74% 0 mm
07:34 -0.6 °C -4.6 °C 1005.3 hPa West 6.4 km/h 14.5 km/h 74% 0 mm
07:39 -0.6 °C -4.7 °C 1005.3 hPa WSW 12.9 km/h 17.7 km/h 74% 0 mm
07:44 -0.6 °C -4.7 °C 1005.3 hPa West 6.4 km/h 17.7 km/h 74% 0 mm
07:49 -0.6 °C -4.7 °C 1005.3 hPa West 11.3 km/h 19.3 km/h 74% 0 mm
07:59 -0.6 °C -4.7 °C 1005.3 hPa West 4.8 km/h 17.7 km/h 74% 0 mm
08:14 -0.8 °C -4.8 °C 1005.3 hPa West 8 km/h 19.3 km/h 74% 0 mm
08:19 -0.8 °C -4.8 °C 1005.3 hPa West 8 km/h 17.7 km/h 74% 0 mm
08:24 -0.8 °C -4.8 °C 1005.3 hPa West 8 km/h 16.1 km/h 74% 0 mm
08:29 -0.7 °C -4.9 °C 1005.3 hPa WSW 8 km/h 24.1 km/h 73% 0 mm
08:39 -0.6 °C -5.1 °C 1005.3 hPa West 6.4 km/h 22.5 km/h 72% 0 mm
08:44 -0.4 °C -5.1 °C 1005.3 hPa WNW 17.7 km/h 27.4 km/h 71% 0 mm
08:49 -0.2 °C -5.1 °C 1005.3 hPa NW 14.5 km/h 29 km/h 70% 0 mm
08:54 0.1 °C -4.9 °C 1005.3 hPa WNW 20.9 km/h 27.4 km/h 69% 0 mm
08:59 0.2 °C -5 °C 1005.3 hPa West 20.9 km/h 25.7 km/h 68% 0 mm
09:04 0.3 °C -5.3 °C 1005.3 hPa West 14.5 km/h 30.6 km/h 66% 0 mm
09:09 0.6 °C -5.5 °C 1005.3 hPa West 14.5 km/h 30.6 km/h 64% 0 mm
09:19 0.6 °C -4.8 °C 1005.3 hPa West 11.3 km/h 27.4 km/h 67% 0 mm
09:24 0.6 °C -4.9 °C 1005.3 hPa West 9.7 km/h 20.9 km/h 67% 0 mm
09:29 0.7 °C -4.8 °C 1005.3 hPa SW 17.7 km/h 24.1 km/h 67% 0 mm
09:39 0.7 °C -4.9 °C 1005.3 hPa West 14.5 km/h 30.6 km/h 66% 0 mm
09:44 0.7 °C -4.8 °C 1005.3 hPa WSW 6.4 km/h 33.8 km/h 67% 0 mm
09:49 0.6 °C -4.3 °C 1005.3 hPa WSW 14.5 km/h 33.8 km/h 70% 0 mm
09:54 0.3 °C -3.9 °C 1005.3 hPa WSW 12.9 km/h 30.6 km/h 73% 0 mm
09:59 0.3 °C -3.8 °C 1005.3 hPa SW 12.9 km/h 22.5 km/h 74% 0 mm
10:04 0.3 °C -3.6 °C 1005.3 hPa SW 9.7 km/h 20.9 km/h 75% 0 mm
10:09 0.4 °C -3.6 °C 1005.3 hPa WNW 4.8 km/h 24.1 km/h 75% 0 mm
10:14 0.4 °C -3.5 °C 1005.3 hPa SW 14.5 km/h 22.5 km/h 75% 0 mm
10:24 0.6 °C -3.2 °C 1005.3 hPa West 8 km/h 27.4 km/h 76% 0 mm
10:29 0.6 °C -3.1 °C 1005.3 hPa West 12.9 km/h 25.7 km/h 76% 0 mm
10:34 0.7 °C -3.3 °C 1005.3 hPa West 6.4 km/h 24.1 km/h 75% 0 mm
10:39 0.7 °C -3.2 °C 1005.3 hPa WNW 12.9 km/h 24.1 km/h 75% 0 mm
10:44 0.8 °C -3.3 °C 1005.3 hPa West 12.9 km/h 29 km/h 74% 0 mm
10:49 0.9 °C -3.2 °C 1005.3 hPa West 12.9 km/h 29 km/h 74% 0 mm
10:54 1.1 °C -3.2 °C 1005.3 hPa West 11.3 km/h 27.4 km/h 73% 0 mm
10:59 1.1 °C -3.6 °C 1005.3 hPa West 12.9 km/h 32.2 km/h 71% 0 mm
11:09 1.1 °C -3.4 °C 1005.3 hPa WSW 8 km/h 30.6 km/h 72% 0 mm
11:14 1.3 °C -3.2 °C 1005.3 hPa West 12.9 km/h 30.6 km/h 72% 0 mm
11:19 1.4 °C -3.2 °C 1005 hPa West 11.3 km/h 22.5 km/h 71% 0 mm
11:24 1.3 °C -2.8 °C 1005 hPa SW 17.7 km/h 27.4 km/h 74% 0 mm
11:29 1.1 °C -2.8 °C 1005 hPa WSW 19.3 km/h 25.7 km/h 75% 0 mm
11:34 1 °C -2.8 °C 1005 hPa West 9.7 km/h 27.4 km/h 76% 0 mm
11:44 1 °C -2.8 °C 1005 hPa West 14.5 km/h 29 km/h 76% 0 mm
11:49 1 °C -3.1 °C 1004.6 hPa West 14.5 km/h 29 km/h 74% 0 mm
11:54 1.2 °C -2.9 °C 1004.6 hPa WSW 14.5 km/h 32.2 km/h 74% 0 mm
11:59 1.2 °C -3.5 °C 1004.6 hPa WSW 14.5 km/h 25.7 km/h 71% 0 mm
12:04 1.3 °C -3.6 °C 1004.6 hPa WSW 11.3 km/h 29 km/h 70% 0 mm
12:09 1.2 °C -4.1 °C 1004.3 hPa WSW 11.3 km/h 32.2 km/h 68% 0 mm
12:19 1 °C -3.3 °C 1004.3 hPa West 12.9 km/h 25.7 km/h 73% 0 mm
12:24 0.8 °C -3 °C 1004.3 hPa WNW 11.3 km/h 20.9 km/h 76% 0 mm
12:29 0.8 °C -2.7 °C 1004.3 hPa West 9.7 km/h 17.7 km/h 77% 0 mm
12:34 0.9 °C -3.2 °C 1003.9 hPa WSW 12.9 km/h 29 km/h 74% 0 mm
12:44 1.1 °C -3.8 °C 1003.9 hPa West 22.5 km/h 32.2 km/h 70% 0 mm
12:54 1.4 °C -3.7 °C 1003.6 hPa West 14.5 km/h 33.8 km/h 69% 0 mm
12:59 1.6 °C -3.3 °C 1003.6 hPa West 14.5 km/h 33.8 km/h 70% 0 mm
13:04 1.4 °C -3.1 °C 1003.6 hPa WSW 14.5 km/h 37 km/h 72% 0 mm
13:09 1.3 °C -3.2 °C 1003.6 hPa West 19.3 km/h 30.6 km/h 72% 0 mm
13:14 1.3 °C -3 °C 1003.3 hPa SW 8 km/h 33.8 km/h 73% 0 mm
13:19 1.4 °C -3.1 °C 1003.3 hPa WSW 14.5 km/h 33.8 km/h 72% 0 mm
13:24 1.3 °C -3 °C 1003.3 hPa WSW 14.5 km/h 30.6 km/h 73% 0 mm
13:29 1.3 °C -3 °C 1003.3 hPa South 17.7 km/h 27.4 km/h 73% 0 mm
13:34 1.3 °C -3.2 °C 1003.3 hPa WSW 22.5 km/h 30.6 km/h 72% 0 mm
13:39 1.2 °C -3.3 °C 1002.9 hPa West 20.9 km/h 30.6 km/h 72% 0 mm
13:44 1.1 °C -3.4 °C 1003.3 hPa WSW 16.1 km/h 30.6 km/h 72% 0 mm
13:54 1.2 °C -3.3 °C 1003.3 hPa WSW 16.1 km/h 33.8 km/h 72% 0 mm
13:59 1.3 °C -3.2 °C 1003.3 hPa West 14.5 km/h 30.6 km/h 72% 0 mm
14:04 1.1 °C -3.8 °C 1002.9 hPa WSW 16.1 km/h 35.4 km/h 70% 0 mm
14:09 1.1 °C -3.8 °C 1002.9 hPa WSW 19.3 km/h 37 km/h 70% 0 mm
14:14 1 °C -3.7 °C 1002.9 hPa WSW 14.5 km/h 37 km/h 71% 0 mm
14:19 0.9 °C -3.9 °C 1002.9 hPa WSW 12.9 km/h 32.2 km/h 70% 0 mm
14:24 0.8 °C -3.9 °C 1003.3 hPa WSW 16.1 km/h 40.2 km/h 71% 0 mm
14:29 0.7 °C -3.8 °C 1003.3 hPa West 17.7 km/h 40.2 km/h 72% 0 mm
14:34 0.8 °C -3.8 °C 1002.9 hPa WNW 11.3 km/h 29 km/h 71% 0 mm
14:39 0.8 °C -3.9 °C 1003.3 hPa WSW 11.3 km/h 27.4 km/h 71% 0 mm
14:44 0.8 °C -3.7 °C 1003.3 hPa North 8 km/h 33.8 km/h 72% 0 mm
14:49 0.8 °C -3.9 °C 1003.3 hPa WSW 14.5 km/h 40.2 km/h 71% 0 mm
14:54 0.9 °C -3.6 °C 1002.9 hPa WSW 22.5 km/h 27.4 km/h 72% 0 mm
14:59 0.9 °C -3.6 °C 1003.3 hPa West 16.1 km/h 27.4 km/h 72% 0 mm
15:04 0.9 °C -3.7 °C 1003.3 hPa WSW 16.1 km/h 32.2 km/h 71% 0 mm
15:09 0.9 °C -3.6 °C 1003.3 hPa WSW 16.1 km/h 33.8 km/h 72% 0 mm
15:14 0.8 °C -3.5 °C 1003.3 hPa SW 16.1 km/h 32.2 km/h 73% 0 mm
15:19 0.7 °C -3.4 °C 1003.3 hPa West 12.9 km/h 25.7 km/h 74% 0 mm
15:24 0.7 °C -3.6 °C 1003.3 hPa SW 16.1 km/h 35.4 km/h 73% 0 mm
15:29 0.6 °C -3.3 °C 1003.3 hPa WSW 14.5 km/h 35.4 km/h 75% 0 mm
15:34 0.6 °C -3.4 °C 1003.3 hPa WSW 14.5 km/h 37 km/h 75% 0 mm
15:39 0.5 °C -3.4 °C 1003.3 hPa WSW 16.1 km/h 37 km/h 75% 0 mm
15:44 0.6 °C -3.2 °C 1003.3 hPa WSW 9.7 km/h 27.4 km/h 76% 0 mm
15:49 0.5 °C -3.4 °C 1003.3 hPa West 16.1 km/h 29 km/h 75% 0 mm
15:59 0.4 °C -3.5 °C 1003.6 hPa WSW 16.1 km/h 35.4 km/h 75% 0 mm
16:04 0.4 °C -3.6 °C 1003.6 hPa WSW 14.5 km/h 32.2 km/h 75% 0 mm
16:09 0.3 °C -3.4 °C 1003.6 hPa WSW 14.5 km/h 30.6 km/h 76% 0 mm
16:24 0.3 °C -3.6 °C 1003.6 hPa WSW 17.7 km/h 27.4 km/h 75% 0 mm
16:29 0.3 °C -3.6 °C 1003.6 hPa SW 16.1 km/h 35.4 km/h 75% 0 mm
16:34 0.3 °C -3.6 °C 1003.6 hPa West 12.9 km/h 35.4 km/h 75% 0 mm
16:39 0.3 °C -3.8 °C 1003.6 hPa SW 8 km/h 22.5 km/h 74% 0 mm
16:44 0.3 °C -4 °C 1003.6 hPa West 14.5 km/h 35.4 km/h 73% 0 mm
16:49 0.2 °C -4.1 °C 1003.6 hPa West 11.3 km/h 29 km/h 73% 0 mm
16:59 0.2 °C -3.9 °C 1003.9 hPa West 9.7 km/h 25.7 km/h 74% 0 mm
17:04 0.2 °C -4.1 °C 1003.6 hPa West 11.3 km/h 35.4 km/h 73% 0 mm
17:09 0.2 °C -4.2 °C 1003.9 hPa West 12.9 km/h 35.4 km/h 72% 0 mm
17:14 0.2 °C -4.3 °C 1003.9 hPa West 11.3 km/h 29 km/h 72% 0 mm
17:19 0.2 °C -4.3 °C 1003.9 hPa West 11.3 km/h 29 km/h 72% 0 mm
17:24 0.2 °C -4.2 °C 1003.9 hPa West 9.7 km/h 30.6 km/h 72% 0 mm
17:29 0.2 °C -4.3 °C 1003.9 hPa WNW 6.4 km/h 25.7 km/h 72% 0 mm
17:34 0.2 °C -4.3 °C 1003.9 hPa West 14.5 km/h 27.4 km/h 72% 0 mm
17:39 0.2 °C -4.3 °C 1003.9 hPa West 12.9 km/h 30.6 km/h 72% 0 mm
17:54 0.2 °C -4.3 °C 1004.3 hPa NW 6.4 km/h 24.1 km/h 72% 0 mm
17:59 0.2 °C -4.3 °C 1004.3 hPa WSW 16.1 km/h 27.4 km/h 72% 0 mm
18:04 0.1 °C -4.3 °C 1004.3 hPa WSW 12.9 km/h 27.4 km/h 72% 0 mm
18:09 0.2 °C -4.3 °C 1004.3 hPa WSW 14.5 km/h 29 km/h 72% 0 mm
18:14 0.1 °C -4.3 °C 1004.3 hPa West 11.3 km/h 29 km/h 72% 0 mm
18:19 0.1 °C -4.3 °C 1004.3 hPa West 11.3 km/h 25.7 km/h 72% 0 mm
18:24 0.1 °C -4.3 °C 1004.3 hPa West 12.9 km/h 27.4 km/h 72% 0 mm
18:29 0.1 °C -4.2 °C 1004.3 hPa West 20.9 km/h 29 km/h 73% 0 mm
18:34 0 °C -4.3 °C 1004.3 hPa West 8 km/h 20.9 km/h 73% 0 mm
18:39 -0.1 °C -4.3 °C 1004.3 hPa West 11.3 km/h 24.1 km/h 73% 0 mm
18:44 -0.1 °C -4.4 °C 1004.3 hPa WNW 14.5 km/h 25.7 km/h 73% 0 mm
18:49 -0.1 °C -4.4 °C 1004.3 hPa West 11.3 km/h 29 km/h 73% 0 mm
18:54 -0.2 °C -4.4 °C 1004.3 hPa WSW 6.4 km/h 27.4 km/h 73% 0 mm
19:04 -0.2 °C -4.4 °C 1004.3 hPa West 8 km/h 20.9 km/h 73% 0 mm
19:09 -0.2 °C -4.5 °C 1004.6 hPa West 12.9 km/h 24.1 km/h 73% 0 mm
19:14 -0.2 °C -4.4 °C 1004.6 hPa West 12.9 km/h 24.1 km/h 73% 0 mm
19:19 -0.2 °C -4.5 °C 1004.6 hPa WSW 11.3 km/h 22.5 km/h 73% 0 mm
19:24 -0.2 °C -4.5 °C 1004.6 hPa West 9.7 km/h 20.9 km/h 73% 0 mm
19:29 -0.2 °C -4.5 °C 1004.6 hPa West 11.3 km/h 25.7 km/h 73% 0 mm
19:34 -0.2 °C -4.3 °C 1004.6 hPa West 9.7 km/h 24.1 km/h 74% 0 mm
19:39 -0.2 °C -4.3 °C 1004.6 hPa West 9.7 km/h 24.1 km/h 74% 0 mm
19:44 -0.3 °C -4.3 °C 1004.6 hPa West 11.3 km/h 22.5 km/h 74% 0 mm
19:49 -0.3 °C -4.3 °C 1004.6 hPa West 17.7 km/h 27.4 km/h 74% 0 mm
19:54 -0.3 °C -4.3 °C 1004.6 hPa West 6.4 km/h 20.9 km/h 74% 0 mm
20:04 -0.3 °C -4.2 °C 1004.6 hPa West 8 km/h 24.1 km/h 75% 0 mm
20:09 -0.4 °C -4 °C 1004.6 hPa West 11.3 km/h 25.7 km/h 77% 0 mm
20:14 -0.6 °C -3.9 °C 1004.6 hPa West 11.3 km/h 25.7 km/h 78% 0 mm
20:19 -0.7 °C -3.7 °C 1004.6 hPa West 4.8 km/h 24.1 km/h 80% 0 mm
20:24 -0.8 °C -3.7 °C 1004.6 hPa West 14.5 km/h 25.7 km/h 81% 0 mm
20:29 -0.9 °C -3.6 °C 1004.6 hPa SW 9.7 km/h 24.1 km/h 82% 0 mm
20:34 -1.1 °C -3.6 °C 1004.6 hPa SW 17.7 km/h 24.1 km/h 83% 0 mm
20:39 -1.1 °C -3.4 °C 1004.6 hPa West 11.3 km/h 24.1 km/h 84% 0 mm
20:44 -1.2 °C -3.4 °C 1004.6 hPa West 11.3 km/h 24.1 km/h 85% 0 mm
20:54 -1.4 °C -3.4 °C 1004.6 hPa West 11.3 km/h 22.5 km/h 86% 0 mm
20:59 -1.4 °C -3.5 °C 1004.6 hPa WSW 12.9 km/h 17.7 km/h 86% 0 mm
21:04 -1.5 °C -3.6 °C 1004.6 hPa WSW 6.4 km/h 20.9 km/h 86% 0 mm
21:09 -1.5 °C -3.6 °C 1004.6 hPa West 11.3 km/h 22.5 km/h 86% 0 mm
21:14 -1.5 °C -3.6 °C 1004.6 hPa WSW 14.5 km/h 20.9 km/h 86% 0 mm
21:19 -1.5 °C -3.6 °C 1004.6 hPa WNW 14.5 km/h 20.9 km/h 86% 0 mm
21:24 -1.5 °C -3.7 °C 1004.6 hPa West 6.4 km/h 17.7 km/h 85% 0 mm
21:29 -1.5 °C -3.7 °C 1004.6 hPa West 9.7 km/h 17.7 km/h 85% 0 mm
21:34 -1.5 °C -3.7 °C 1004.6 hPa West 9.7 km/h 25.7 km/h 85% 0 mm
21:39 -1.4 °C -3.8 °C 1004.6 hPa West 9.7 km/h 25.7 km/h 84% 0 mm
21:44 -1.4 °C -3.7 °C 1004.6 hPa West 9.7 km/h 20.9 km/h 84% 0 mm
21:49 -1.4 °C -3.9 °C 1004.6 hPa West 9.7 km/h 20.9 km/h 83% 0 mm
21:54 -1.3 °C -4 °C 1004.6 hPa West 9.7 km/h 22.5 km/h 82% 0 mm
21:59 -1.2 °C -3.9 °C 1004.6 hPa West 9.7 km/h 22.5 km/h 82% 0 mm
22:04 -1.2 °C -4.1 °C 1004.6 hPa West 16.1 km/h 27.4 km/h 81% 0 mm
22:09 -1.2 °C -4 °C 1004.6 hPa WSW 11.3 km/h 27.4 km/h 81% 0 mm
22:19 -1.1 °C -4.1 °C 1004.6 hPa West 14.5 km/h 19.3 km/h 80% 0 mm
22:24 -1.2 °C -4 °C 1004.6 hPa West 8 km/h 20.9 km/h 81% 0 mm
22:34 -1.3 °C -4.1 °C 1004.6 hPa WNW 14.5 km/h 25.7 km/h 81% 0 mm
22:44 -1.3 °C -4.2 °C 1004.6 hPa West 9.7 km/h 24.1 km/h 81% 0 mm
22:49 -1.3 °C -4.2 °C 1004.6 hPa West 11.3 km/h 24.1 km/h 81% 0 mm
22:54 -1.3 °C -4.2 °C 1004.6 hPa West 12.9 km/h 25.7 km/h 81% 0 mm
22:59 -1.3 °C -4.2 °C 1004.6 hPa West 11.3 km/h 25.7 km/h 81% 0 mm
23:04 -1.4 °C -4.1 °C 1004.3 hPa West 14.5 km/h 17.7 km/h 82% 0 mm
23:09 -1.4 °C -4.1 °C 1004.6 hPa WNW 8 km/h 17.7 km/h 82% 0 mm
23:14 -1.4 °C -4.1 °C 1004.3 hPa West 9.7 km/h 24.1 km/h 82% 0 mm
23:19 -1.5 °C -4.2 °C 1004.3 hPa SW 8 km/h 22.5 km/h 82% 0 mm
23:24 -1.4 °C -4.1 °C 1004.3 hPa West 14.5 km/h 24.1 km/h 82% 0 mm
23:29 -1.4 °C -4.1 °C 1004.3 hPa WSW 6.4 km/h 22.5 km/h 82% 0 mm
23:34 -1.4 °C -4.3 °C 1004.3 hPa WNW 8 km/h 17.7 km/h 81% 0 mm
23:39 -1.4 °C -4.2 °C 1004.3 hPa NNW 11.3 km/h 19.3 km/h 81% 0 mm
23:44 -1.4 °C -4.2 °C 1004.3 hPa West 11.3 km/h 16.1 km/h 81% 0 mm
23:49 -1.3 °C -4.2 °C 1004.3 hPa West 9.7 km/h 19.3 km/h 81% 0 mm
23:54 -1.3 °C -4.2 °C 1004.6 hPa West 9.7 km/h 19.3 km/h 81% 0 mm
23:59 -1.3 °C -4.2 °C 1004.3 hPa WNW 11.3 km/h 19.3 km/h 81% 0 mm
Buffalo, New York, USA
Compliments of Weather Underground - 2.25 mb